createdAt,value
2019-03-15T00:00:57.213Z,5.80
2019-03-15T00:03:25.060Z,5.80
2019-03-15T00:05:53.190Z,5.80
2019-03-15T00:08:22.057Z,5.80
2019-03-15T00:10:50.181Z,5.80
2019-03-15T00:13:18.155Z,5.70
2019-03-15T00:15:46.227Z,5.70
2019-03-15T00:18:15.044Z,5.80
2019-03-15T00:20:42.883Z,5.80
2019-03-15T00:23:10.917Z,5.80
2019-03-15T00:25:38.776Z,5.80
2019-03-15T00:28:06.605Z,5.80
2019-03-15T00:30:34.526Z,5.80
2019-03-15T00:33:03.446Z,5.80
2019-03-15T00:35:31.387Z,5.80
2019-03-15T00:37:59.355Z,5.80
2019-03-15T00:40:27.270Z,5.80
2019-03-15T00:42:55.286Z,5.80
2019-03-15T00:45:23.172Z,5.80
2019-03-15T00:47:51.336Z,5.80
2019-03-15T00:50:20.396Z,5.80
2019-03-15T00:52:48.239Z,5.80
2019-03-15T00:55:16.094Z,5.80
2019-03-15T00:57:45.087Z,5.90
2019-03-15T01:00:14.332Z,5.90
2019-03-15T01:02:44.198Z,5.80
2019-03-15T01:05:12.015Z,5.80
2019-03-15T01:07:41.493Z,5.80
2019-03-15T01:10:10.245Z,5.80
2019-03-15T01:12:38.235Z,5.80
2019-03-15T01:15:06.760Z,5.70
2019-03-15T01:17:34.716Z,5.70
2019-03-15T01:20:02.916Z,5.70
2019-03-15T01:22:31.052Z,5.70
2019-03-15T01:24:58.931Z,5.70
2019-03-15T01:27:26.771Z,5.70
2019-03-15T01:29:54.738Z,5.70
2019-03-15T01:32:22.585Z,5.70
2019-03-15T01:34:50.504Z,5.70
2019-03-15T01:37:18.469Z,5.80
2019-03-15T01:39:49.199Z,5.80
2019-03-15T01:42:17.157Z,5.80
2019-03-15T01:44:45.177Z,5.80
2019-03-15T01:47:13.109Z,5.90
2019-03-15T01:49:44.354Z,5.90
2019-03-15T01:52:10.760Z,5.90
2019-03-15T01:54:38.760Z,5.90
2019-03-15T01:57:06.670Z,5.90
2019-03-15T01:59:34.672Z,5.90
2019-03-15T02:02:02.783Z,5.90
2019-03-15T02:04:31.793Z,6.00
2019-03-15T02:07:00.204Z,6.00
2019-03-15T02:09:28.218Z,6.00
2019-03-15T02:11:56.210Z,6.00
2019-03-15T02:14:24.062Z,6.00
2019-03-15T02:16:51.978Z,6.10
2019-03-15T02:19:19.817Z,6.10
2019-03-15T02:21:47.696Z,6.10
2019-03-15T02:24:17.328Z,6.10
2019-03-15T02:26:45.369Z,6.10
2019-03-15T02:29:13.377Z,6.10
2019-03-15T02:31:41.400Z,6.10
2019-03-15T02:34:09.242Z,6.10
2019-03-15T02:36:37.240Z,6.10
2019-03-15T02:39:05.919Z,6.10
2019-03-15T02:41:33.823Z,6.10
2019-03-15T02:44:01.828Z,6.10
2019-03-15T02:46:29.979Z,6.00
2019-03-15T02:48:58.126Z,6.00
2019-03-15T02:51:26.140Z,6.00
2019-03-15T02:53:56.044Z,6.00
2019-03-15T02:56:24.938Z,5.90
2019-03-15T02:58:54.031Z,5.90
2019-03-15T03:01:23.228Z,5.90
2019-03-15T03:03:51.287Z,5.90
2019-03-15T03:06:19.304Z,5.90
2019-03-15T03:08:47.187Z,5.90
2019-03-15T03:11:15.299Z,5.90
2019-03-15T03:13:43.194Z,5.90
2019-03-15T03:16:11.251Z,5.90
2019-03-15T03:18:39.297Z,5.90
2019-03-15T03:21:07.320Z,5.90
2019-03-15T03:23:35.422Z,5.90
2019-03-15T03:26:03.536Z,5.90
2019-03-15T03:28:31.579Z,5.90
2019-03-15T03:30:59.680Z,5.90
2019-03-15T03:33:30.381Z,5.80
2019-03-15T03:35:59.282Z,5.90
2019-03-15T03:38:27.103Z,5.80
2019-03-15T03:40:56.282Z,5.80
2019-03-15T03:43:24.716Z,5.80
2019-03-15T03:45:52.604Z,5.80
2019-03-15T03:48:20.614Z,5.80
2019-03-15T03:50:49.221Z,5.80
2019-03-15T03:53:17.142Z,5.80
2019-03-15T03:55:44.981Z,5.80
2019-03-15T03:58:12.922Z,5.80
2019-03-15T04:00:40.955Z,5.80
2019-03-15T04:03:08.936Z,5.80
2019-03-15T04:05:36.866Z,5.90
2019-03-15T04:08:04.848Z,5.90
2019-03-15T04:10:32.655Z,5.90
2019-03-15T04:13:00.667Z,5.90
2019-03-15T04:15:29.483Z,6.00
2019-03-15T04:17:57.352Z,6.00
2019-03-15T04:20:26.282Z,6.00
2019-03-15T04:22:55.413Z,6.00
2019-03-15T04:25:23.448Z,6.10
2019-03-15T04:27:51.279Z,6.10
2019-03-15T04:30:19.131Z,6.10
2019-03-15T04:32:47.159Z,6.10
2019-03-15T04:35:16.122Z,6.20
2019-03-15T04:37:44.097Z,6.20
2019-03-15T04:40:12.037Z,6.20
2019-03-15T04:42:40.078Z,6.30
2019-03-15T04:45:08.111Z,6.30
2019-03-15T04:47:36.973Z,6.30
2019-03-15T04:50:08.759Z,6.30
2019-03-15T04:52:37.790Z,6.30
2019-03-15T04:55:05.837Z,6.40
2019-03-15T04:57:33.802Z,6.40
2019-03-15T05:00:01.634Z,6.40
2019-03-15T05:02:29.579Z,6.40
2019-03-15T05:05:00.185Z,6.40
2019-03-15T05:07:27.214Z,6.50
2019-03-15T05:09:55.172Z,6.50
2019-03-15T05:12:23.402Z,6.50
2019-03-15T05:14:51.227Z,6.50
2019-03-15T05:17:19.071Z,6.50
2019-03-15T05:19:47.069Z,6.50
2019-03-15T05:22:15.081Z,6.60
2019-03-15T05:24:43.103Z,6.60
2019-03-15T05:27:11.100Z,6.60
2019-03-15T05:29:39.174Z,6.60
2019-03-15T05:32:07.240Z,6.60
2019-03-15T05:34:35.124Z,6.70
2019-03-15T05:37:03.020Z,6.70
2019-03-15T05:39:32.760Z,6.70
2019-03-15T05:42:01.146Z,6.70
2019-03-15T05:44:29.244Z,6.70
2019-03-15T05:46:57.187Z,6.70
2019-03-15T05:49:25.113Z,6.70
2019-03-15T05:51:53.008Z,6.70
2019-03-15T05:54:20.879Z,6.70
2019-03-15T05:56:48.718Z,6.70
2019-03-15T05:59:16.624Z,6.80
2019-03-15T06:01:44.683Z,6.80
2019-03-15T06:04:12.624Z,6.80
2019-03-15T06:06:40.686Z,6.80
2019-03-15T06:09:08.629Z,6.80
2019-03-15T06:11:36.828Z,6.90
2019-03-15T06:14:05.477Z,6.90
2019-03-15T06:16:33.452Z,6.90
2019-03-15T06:19:01.388Z,6.90
2019-03-15T06:21:29.272Z,6.90
2019-03-15T06:23:57.187Z,7.00
2019-03-15T06:26:25.218Z,7.00
2019-03-15T06:28:53.322Z,7.00
2019-03-15T06:31:21.278Z,7.10
2019-03-15T06:33:49.198Z,7.10
2019-03-15T06:36:17.074Z,7.10
2019-03-15T06:38:45.124Z,7.20
2019-03-15T06:41:14.433Z,7.20
2019-03-15T06:43:42.672Z,7.30
2019-03-15T06:46:10.625Z,7.30
2019-03-15T06:48:38.839Z,7.30
2019-03-15T06:51:09.207Z,7.30
2019-03-15T06:53:36.795Z,7.40
2019-03-15T06:56:05.036Z,7.40
2019-03-15T06:58:33.155Z,7.50
2019-03-15T07:01:01.272Z,7.50
2019-03-15T07:03:29.616Z,7.50
2019-03-15T07:05:57.588Z,7.50
2019-03-15T07:08:25.624Z,7.50
2019-03-15T07:10:54.034Z,7.50
2019-03-15T07:13:22.377Z,7.50
2019-03-15T07:15:50.323Z,7.60
2019-03-15T07:18:18.956Z,7.60
2019-03-15T07:20:47.223Z,7.60
2019-03-15T07:23:16.100Z,7.70
2019-03-15T07:25:44.907Z,7.80
2019-03-15T07:28:13.841Z,7.90
2019-03-15T07:30:42.453Z,7.90
2019-03-15T07:33:11.237Z,7.90
2019-03-15T07:35:40.220Z,7.80
2019-03-15T07:38:09.079Z,7.80
2019-03-15T07:40:37.842Z,7.70
2019-03-15T07:43:06.670Z,7.70
2019-03-15T07:45:35.571Z,7.80
2019-03-15T07:48:06.886Z,7.80
2019-03-15T07:50:35.466Z,7.90
2019-03-15T07:53:04.357Z,8.00
2019-03-15T07:55:33.038Z,8.00
2019-03-15T07:58:01.871Z,8.00
2019-03-15T08:00:30.778Z,8.00
2019-03-15T08:03:00.811Z,7.90
2019-03-15T08:05:29.490Z,7.90
2019-03-15T08:07:58.067Z,7.90
2019-03-15T08:10:26.884Z,7.80
2019-03-15T08:12:55.960Z,7.80
2019-03-15T08:15:24.951Z,7.80
2019-03-15T08:17:53.494Z,7.80
2019-03-15T08:20:22.124Z,7.80
2019-03-15T08:22:50.791Z,7.90
2019-03-15T08:25:19.553Z,7.90
2019-03-15T08:27:49.037Z,8.00
2019-03-15T08:30:18.917Z,8.00
2019-03-15T08:32:47.510Z,8.00
2019-03-15T08:35:16.189Z,8.00
2019-03-15T08:37:44.851Z,7.90
2019-03-15T08:40:14.508Z,7.90
2019-03-15T08:42:43.328Z,7.80
2019-03-15T08:45:18.188Z,7.80
2019-03-15T08:47:48.014Z,7.70
2019-03-15T08:50:18.181Z,7.70
2019-03-15T08:52:46.992Z,7.80
2019-03-15T08:55:15.787Z,7.80
2019-03-15T08:57:44.897Z,7.80
2019-03-15T09:00:15.954Z,7.80
2019-03-15T09:02:44.811Z,7.90
2019-03-15T09:05:14.599Z,8.00
2019-03-15T09:07:43.568Z,8.10
2019-03-15T09:10:23.371Z,8.20
2019-03-15T09:12:47.423Z,8.40
2019-03-15T09:15:16.089Z,8.60
2019-03-15T09:17:44.755Z,8.80
2019-03-15T09:20:14.668Z,8.80
2019-03-15T09:22:43.394Z,8.90
2019-03-15T09:25:20.489Z,9.00
2019-03-15T09:27:48.447Z,9.00
2019-03-15T09:30:23.600Z,9.10
2019-03-15T09:32:49.515Z,9.20
2019-03-15T09:35:18.538Z,9.30
2019-03-15T09:37:47.911Z,9.40
2019-03-15T09:40:16.918Z,9.50
2019-03-15T09:42:45.890Z,9.60
2019-03-15T09:45:16.436Z,9.70
2019-03-15T09:47:45.327Z,9.90
2019-03-15T09:50:22.874Z,10.10
2019-03-15T09:52:45.690Z,10.30
2019-03-15T09:55:14.990Z,10.50
2019-03-15T09:57:43.582Z,10.60
2019-03-15T10:00:16.973Z,10.80
2019-03-15T10:02:45.928Z,11.00
2019-03-15T10:05:14.952Z,11.10
2019-03-15T10:07:44.145Z,11.10
2019-03-15T10:10:19.299Z,11.20
2019-03-15T10:12:48.081Z,11.40
2019-03-15T10:15:17.510Z,11.50
2019-03-15T10:17:46.328Z,11.70
2019-03-15T10:20:15.397Z,11.90
2019-03-15T10:22:44.315Z,12.50
2019-03-15T10:25:14.355Z,13.50
2019-03-15T10:27:43.064Z,13.90
2019-03-15T10:30:16.656Z,13.90
2019-03-15T10:32:45.491Z,13.70
2019-03-15T10:35:14.373Z,13.50
2019-03-15T10:37:43.164Z,13.30
2019-03-15T10:40:19.762Z,12.90
2019-03-15T10:42:55.944Z,12.60
2019-03-15T10:45:25.455Z,12.20
2019-03-15T10:47:54.113Z,11.70
2019-03-15T10:50:23.025Z,11.50
2019-03-15T10:52:53.797Z,11.50
2019-03-15T10:55:22.287Z,11.60
2019-03-15T10:57:51.320Z,11.70
2019-03-15T11:00:20.914Z,11.80
2019-03-15T11:02:51.980Z,11.80
2019-03-15T11:05:20.654Z,11.90
2019-03-15T11:07:49.725Z,11.80
2019-03-15T11:10:18.543Z,11.70
2019-03-15T11:12:47.298Z,11.50
2019-03-15T11:15:16.727Z,11.30
2019-03-15T11:17:45.582Z,11.10
2019-03-15T11:20:14.332Z,11.10
2019-03-15T11:22:43.143Z,11.10
2019-03-15T11:25:12.530Z,11.30
2019-03-15T11:27:41.421Z,11.40
2019-03-15T11:30:14.679Z,11.50
2019-03-15T11:32:43.632Z,11.60
2019-03-15T11:35:12.733Z,11.80
2019-03-15T11:37:41.638Z,12.00
2019-03-15T11:40:19.151Z,12.00
2019-03-15T11:42:49.291Z,11.90
2019-03-15T11:45:18.092Z,11.70
2019-03-15T11:48:02.635Z,11.50
2019-03-15T11:50:21.603Z,11.50
2019-03-15T11:52:50.681Z,11.60
2019-03-15T11:55:19.529Z,11.80
2019-03-15T11:57:48.586Z,12.00
2019-03-15T12:00:18.254Z,12.20
2019-03-15T12:02:47.462Z,12.30
2019-03-15T12:05:16.451Z,12.30
2019-03-15T12:07:45.554Z,12.30
2019-03-15T12:10:15.257Z,12.20
2019-03-15T12:12:43.981Z,12.20
2019-03-15T12:15:14.188Z,12.10
2019-03-15T12:17:43.134Z,12.00
2019-03-15T12:20:12.814Z,12.00
2019-03-15T12:22:41.467Z,12.10
2019-03-15T12:25:13.038Z,12.00
2019-03-15T12:27:41.834Z,11.90
2019-03-15T12:30:16.599Z,11.80
2019-03-15T12:32:45.702Z,11.70
2019-03-15T12:35:15.155Z,11.70
2019-03-15T12:37:44.094Z,11.80
2019-03-15T12:40:13.897Z,12.00
2019-03-15T12:42:43.024Z,12.10
2019-03-15T12:45:12.657Z,12.20
2019-03-15T12:47:41.438Z,12.10
2019-03-15T12:50:16.448Z,12.10
2019-03-15T12:52:48.948Z,12.00
2019-03-15T12:55:16.053Z,11.90
2019-03-15T12:57:45.086Z,11.90
2019-03-15T13:00:16.166Z,11.80
2019-03-15T13:02:45.210Z,11.60
2019-03-15T13:05:14.278Z,11.50
2019-03-15T13:07:43.323Z,11.40
2019-03-15T13:10:22.562Z,11.40
2019-03-15T13:12:51.765Z,11.40
2019-03-15T13:15:20.641Z,11.40
2019-03-15T13:17:49.732Z,11.50
2019-03-15T13:20:18.730Z,11.70
2019-03-15T13:22:47.424Z,11.80
2019-03-15T13:25:16.252Z,12.00
2019-03-15T13:27:44.948Z,12.10
2019-03-15T13:30:14.832Z,12.30
2019-03-15T13:32:43.827Z,12.30
2019-03-15T13:35:13.858Z,12.40
2019-03-15T13:37:43.387Z,12.30
2019-03-15T13:40:18.048Z,12.30
2019-03-15T13:42:46.710Z,12.30
2019-03-15T13:45:16.654Z,12.30
2019-03-15T13:47:45.721Z,12.40
2019-03-15T13:50:21.509Z,12.40
2019-03-15T13:52:50.581Z,12.30
2019-03-15T13:55:21.084Z,12.40
2019-03-15T13:57:50.091Z,12.50
2019-03-15T14:00:19.790Z,12.40
2019-03-15T14:02:49.287Z,12.50
2019-03-15T14:05:18.048Z,12.60
2019-03-15T14:07:47.084Z,12.60
2019-03-15T14:10:17.204Z,12.60
2019-03-15T14:12:46.367Z,12.60
2019-03-15T14:15:17.196Z,12.50
2019-03-15T14:17:46.199Z,12.30
2019-03-15T14:20:14.958Z,12.00
2019-03-15T14:22:43.852Z,11.80
2019-03-15T14:25:15.375Z,11.60
2019-03-15T14:27:44.040Z,11.60
2019-03-15T14:30:14.021Z,11.60
2019-03-15T14:32:43.043Z,11.60
2019-03-15T14:35:11.807Z,11.60
2019-03-15T14:37:41.023Z,11.60
2019-03-15T14:40:11.158Z,11.50
2019-03-15T14:42:39.935Z,11.60
2019-03-15T14:45:15.991Z,11.60
2019-03-15T14:47:44.941Z,11.50
2019-03-15T14:50:15.940Z,11.40
2019-03-15T14:52:44.922Z,11.40
2019-03-15T14:55:15.806Z,11.40
2019-03-15T14:57:52.230Z,11.40
2019-03-15T15:00:16.080Z,11.40
2019-03-15T15:02:45.180Z,11.50
2019-03-15T15:05:14.276Z,11.50
2019-03-15T15:07:44.978Z,11.50
2019-03-15T15:10:15.119Z,11.40
2019-03-15T15:12:44.203Z,11.40
2019-03-15T15:15:20.682Z,11.30
2019-03-15T15:17:49.682Z,11.20
2019-03-15T15:20:19.185Z,11.20
2019-03-15T15:22:48.100Z,11.10
2019-03-15T15:25:20.051Z,11.10
2019-03-15T15:27:48.924Z,11.00
2019-03-15T15:30:18.410Z,11.00
2019-03-15T15:32:47.167Z,10.90
2019-03-15T15:35:16.560Z,10.90
2019-03-15T15:37:45.414Z,10.90
2019-03-15T15:40:19.045Z,10.90
2019-03-15T15:42:47.943Z,10.90
2019-03-15T15:45:17.011Z,10.80
2019-03-15T15:47:45.887Z,10.80
2019-03-15T15:50:15.561Z,10.70
2019-03-15T15:52:44.736Z,10.70
2019-03-15T15:55:14.710Z,10.60
2019-03-15T15:57:43.801Z,10.60
2019-03-15T16:00:15.102Z,10.50
2019-03-15T16:02:43.968Z,10.40
2019-03-15T16:05:13.050Z,10.40
2019-03-15T16:07:41.993Z,10.40
2019-03-15T16:10:17.756Z,10.30
2019-03-15T16:12:46.208Z,10.30
2019-03-15T16:15:19.038Z,10.20
2019-03-15T16:17:47.696Z,10.10
2019-03-15T16:20:16.194Z,10.10
2019-03-15T16:22:46.332Z,10.00
2019-03-15T16:25:15.831Z,9.90
2019-03-15T16:27:47.077Z,9.90
2019-03-15T16:30:19.098Z,9.90
2019-03-15T16:32:47.696Z,9.90
2019-03-15T16:35:16.874Z,9.80
2019-03-15T16:37:47.129Z,9.80
2019-03-15T16:40:17.290Z,9.80
2019-03-15T16:42:46.026Z,9.70
2019-03-15T16:45:27.435Z,9.70
2019-03-15T16:47:58.223Z,9.60
2019-03-15T16:50:26.860Z,9.50
2019-03-15T16:52:56.350Z,9.40
2019-03-15T16:55:25.239Z,9.40
2019-03-15T16:57:54.023Z,9.30
2019-03-15T17:00:22.975Z,9.30
2019-03-15T17:02:52.091Z,9.20
2019-03-15T17:05:20.763Z,9.20
2019-03-15T17:07:49.749Z,9.20
2019-03-15T17:10:21.527Z,9.10
2019-03-15T17:12:50.365Z,9.00
2019-03-15T17:15:23.760Z,9.00
2019-03-15T17:17:52.451Z,8.90
2019-03-15T17:20:21.228Z,8.90
2019-03-15T17:22:49.970Z,8.80
2019-03-15T17:25:18.797Z,8.80
2019-03-15T17:27:47.325Z,8.70
2019-03-15T17:30:18.150Z,8.70
2019-03-15T17:32:46.828Z,8.60
2019-03-15T17:35:17.111Z,8.60
2019-03-15T17:37:45.147Z,8.50
2019-03-15T17:40:14.379Z,8.40
2019-03-15T17:42:42.221Z,8.40
2019-03-15T17:45:10.646Z,8.30
2019-03-15T17:47:38.766Z,8.20
2019-03-15T17:50:08.484Z,8.10
2019-03-15T17:52:36.607Z,8.10
2019-03-15T17:55:05.380Z,8.10
2019-03-15T17:57:33.191Z,8.00
2019-03-15T18:00:27.712Z,8.00
2019-03-15T18:02:55.811Z,8.00
2019-03-15T18:05:23.639Z,8.00
2019-03-15T18:07:52.668Z,8.00
2019-03-15T18:10:20.487Z,8.00
2019-03-15T18:12:48.577Z,8.10
2019-03-15T18:15:17.997Z,8.10
2019-03-15T18:17:45.885Z,8.10
2019-03-15T18:20:13.654Z,8.10
2019-03-15T18:22:41.507Z,8.10
2019-03-15T18:25:10.332Z,8.10
2019-03-15T18:27:38.496Z,8.10
2019-03-15T18:30:10.936Z,8.20
2019-03-15T18:32:39.295Z,8.20
2019-03-15T18:35:08.095Z,8.10
2019-03-15T18:37:36.338Z,8.20
2019-03-15T18:40:06.270Z,8.20
2019-03-15T18:42:34.354Z,8.20
2019-03-15T18:45:02.564Z,8.30
2019-03-15T18:47:30.726Z,8.30
2019-03-15T18:49:58.775Z,8.30
2019-03-15T18:52:26.763Z,8.30
2019-03-15T18:54:54.761Z,8.30
2019-03-15T18:57:22.912Z,8.30
2019-03-15T18:59:50.935Z,8.40
2019-03-15T19:02:18.964Z,8.30
2019-03-15T19:04:47.200Z,8.30
2019-03-15T19:07:15.446Z,8.30
2019-03-15T19:09:43.640Z,8.30
2019-03-15T19:12:12.174Z,8.40
2019-03-15T19:14:40.466Z,8.40
2019-03-15T19:17:08.407Z,8.40
2019-03-15T19:19:36.957Z,8.40
2019-03-15T19:22:05.374Z,8.40
2019-03-15T19:24:33.871Z,8.40
2019-03-15T19:27:02.144Z,8.40
2019-03-15T19:29:30.122Z,8.40
2019-03-15T19:31:58.561Z,8.40
2019-03-15T19:34:26.652Z,8.40
2019-03-15T19:36:54.889Z,8.40
2019-03-15T19:39:22.995Z,8.30
2019-03-15T19:41:52.137Z,8.30
2019-03-15T19:44:20.160Z,8.20
2019-03-15T19:46:48.308Z,8.20
2019-03-15T19:49:16.403Z,8.20
2019-03-15T19:51:44.564Z,8.20
2019-03-15T19:54:12.982Z,8.20
2019-03-15T19:56:43.785Z,8.20
2019-03-15T19:59:11.971Z,8.10
2019-03-15T20:01:42.651Z,8.10
2019-03-15T20:04:12.386Z,8.20
2019-03-15T20:06:49.770Z,8.30
2019-03-15T20:09:17.707Z,8.30
2019-03-15T20:11:46.565Z,8.40
2019-03-15T20:14:15.240Z,8.50
2019-03-15T20:16:43.862Z,8.60
2019-03-15T20:19:12.527Z,8.70
2019-03-15T20:21:41.444Z,8.70
2019-03-15T20:24:10.387Z,8.70
2019-03-15T20:26:39.006Z,8.80
2019-03-15T20:29:08.062Z,8.80
2019-03-15T20:31:37.106Z,8.80
2019-03-15T20:34:07.104Z,8.80
2019-03-15T20:36:35.745Z,8.80
2019-03-15T20:39:05.981Z,8.70
2019-03-15T20:41:34.523Z,8.60
2019-03-15T20:44:03.210Z,8.50
2019-03-15T20:46:36.037Z,8.50
2019-03-15T20:49:02.104Z,8.50
2019-03-15T20:51:30.594Z,8.50
2019-03-15T20:53:59.143Z,8.40
2019-03-15T20:56:27.704Z,8.50
2019-03-15T20:58:56.305Z,8.40
2019-03-15T21:01:24.994Z,8.40
2019-03-15T21:03:56.337Z,8.40
2019-03-15T21:06:23.839Z,8.40
2019-03-15T21:08:54.628Z,8.30
2019-03-15T21:11:23.227Z,8.40
2019-03-15T21:13:52.198Z,8.40
2019-03-15T21:16:20.904Z,8.50
2019-03-15T21:18:49.926Z,8.60
2019-03-15T21:21:17.727Z,8.60
2019-03-15T21:23:45.710Z,8.70
2019-03-15T21:26:13.552Z,8.70
2019-03-15T21:28:41.484Z,8.70
2019-03-15T21:31:09.362Z,8.70
2019-03-15T21:33:37.194Z,8.70
2019-03-15T21:36:05.335Z,8.70
2019-03-15T21:38:33.345Z,8.70
2019-03-15T21:41:01.250Z,8.60
2019-03-15T21:43:29.329Z,8.60
2019-03-15T21:45:58.256Z,8.50
2019-03-15T21:48:26.294Z,8.50
2019-03-15T21:50:54.104Z,8.40
2019-03-15T21:53:21.896Z,8.30
2019-03-15T21:55:49.753Z,8.20
2019-03-15T21:58:17.540Z,8.20
2019-03-15T22:00:45.679Z,8.10
2019-03-15T22:03:13.840Z,8.10
2019-03-15T22:05:41.915Z,8.00
2019-03-15T22:08:11.436Z,8.00
2019-03-15T22:10:39.419Z,7.90
2019-03-15T22:13:07.261Z,8.00
2019-03-15T22:15:35.384Z,8.00
2019-03-15T22:18:04.441Z,8.00
2019-03-15T22:20:32.704Z,8.10
2019-03-15T22:23:00.825Z,8.10
2019-03-15T22:25:29.183Z,8.10
2019-03-15T22:27:57.085Z,8.20
2019-03-15T22:30:25.551Z,8.20
2019-03-15T22:32:53.534Z,8.20
2019-03-15T22:35:22.814Z,8.20
2019-03-15T22:37:50.850Z,8.20
2019-03-15T22:40:18.902Z,8.20
2019-03-15T22:42:46.875Z,8.20
2019-03-15T22:45:17.530Z,8.20
2019-03-15T22:47:45.914Z,8.20
2019-03-15T22:50:14.087Z,8.30
2019-03-15T22:52:42.506Z,8.30
2019-03-15T22:55:13.819Z,8.30
2019-03-15T22:57:42.900Z,8.30
2019-03-15T23:00:13.271Z,8.20
2019-03-15T23:02:41.387Z,8.20
2019-03-15T23:05:09.579Z,8.10
2019-03-15T23:07:37.439Z,8.10
2019-03-15T23:10:06.362Z,8.00
2019-03-15T23:12:36.655Z,8.00
2019-03-15T23:15:11.452Z,8.10
2019-03-15T23:17:39.422Z,8.10
2019-03-15T23:20:09.919Z,8.10
2019-03-15T23:22:38.393Z,8.10
2019-03-15T23:25:06.553Z,8.10
2019-03-15T23:27:34.465Z,8.10
2019-03-15T23:30:02.585Z,8.10
2019-03-15T23:32:30.677Z,8.10
2019-03-15T23:34:58.613Z,8.10
2019-03-15T23:37:26.708Z,8.10
2019-03-15T23:39:54.671Z,8.10
2019-03-15T23:42:22.609Z,8.00
2019-03-15T23:44:53.477Z,8.00
2019-03-15T23:47:24.515Z,7.90
2019-03-15T23:49:52.745Z,7.80
2019-03-15T23:52:22.724Z,7.80
2019-03-15T23:55:00.445Z,7.80
2019-03-15T23:57:28.602Z,7.80
2019-03-15T23:59:57.056Z,7.80
